CheckWX is a tool to help pilots better visualize weather data.  It is not intended as a substitute for an official pre-flight weather briefing.

22:59:05 UTC

KJFK METAR
John F Kennedy International Airport
New York, New York, USA
Current

1 hour ago

KJFK 192151Z 19013KT 10SM SCT040 BKN250 28/26 A2984 RMK AO2 SLP105 T02830256
Observed
Jul-19 @ 21:51 UTC
Wind
  • 190° at 13 KTS
Visibility
10 SM
Flight Rules
VFR
Cloud Levels
  • Scattered at 4,000' AGL
  • Broken at 25,000' AGL
Temperature
28°C / 82°F
Dewpoint
26°C / 79°F
Heat Index
33°C / 91°F
Humidity
89%
Altimeter
29.84" Hg
Pressure
1010.52 hPa
Previous

2 hours ago

KJFK 192051Z 18014KT 9SM FEW039 BKN250 28/26 A2986 RMK AO2 SLP111 T02780256 56015
Observed
Jul-19 @ 20:51 UTC
Wind
  • 180° at 14 KTS
Visibility
9 SM
Flight Rules
VFR
Cloud Levels
  • Few at 3,900' AGL
  • Broken at 25,000' AGL
Temperature
28°C / 82°F
Dewpoint
26°C / 79°F
Heat Index
33°C / 91°F
Humidity
89%
Altimeter
29.86" Hg
Pressure
1011.22 hPa
Previous

3 hours ago

KJFK 191951Z 19013KT 10SM FEW035 BKN250 28/26 A2987 RMK AO2 SLP114 T02830256
Observed
Jul-19 @ 19:51 UTC
Wind
  • 190° at 13 KTS
Visibility
10 SM
Flight Rules
VFR
Cloud Levels
  • Few at 3,500' AGL
  • Broken at 25,000' AGL
Temperature
28°C / 82°F
Dewpoint
26°C / 79°F
Heat Index
33°C / 91°F
Humidity
89%
Altimeter
29.87" Hg
Pressure
1011.52 hPa